createdAt,value
2018-03-06T00:00:53.497Z,14.60
2018-03-06T00:01:56.074Z,12.80
2018-03-06T00:02:58.611Z,15.98
2018-03-06T00:04:01.170Z,13.70
2018-03-06T00:05:04.484Z,13.30
2018-03-06T00:06:07.060Z,14.48
2018-03-06T00:07:09.609Z,15.05
2018-03-06T00:08:12.184Z,13.50
2018-03-06T00:09:14.766Z,14.07
2018-03-06T00:10:17.308Z,13.10
2018-03-06T00:11:19.866Z,14.98
2018-03-06T00:12:22.413Z,14.18
2018-03-06T00:13:25.757Z,12.77
2018-03-06T00:14:28.300Z,13.73
2018-03-06T00:15:30.841Z,15.07
2018-03-06T00:16:34.185Z,14.45
2018-03-06T00:17:36.735Z,14.63
2018-03-06T00:18:39.314Z,14.82
2018-03-06T00:19:41.844Z,14.57
2018-03-06T00:20:45.170Z,15.02
2018-03-06T00:21:47.697Z,13.43
2018-03-06T00:22:50.272Z,15.32
2018-03-06T00:23:52.825Z,13.82
2018-03-06T00:24:55.400Z,14.80
2018-03-06T00:25:57.953Z,14.68
2018-03-06T00:27:00.507Z,14.52
2018-03-06T00:28:03.807Z,15.13
2018-03-06T00:29:07.113Z,14.27
2018-03-06T00:30:09.690Z,14.27
2018-03-06T00:31:12.224Z,14.95
2018-03-06T00:32:14.759Z,14.63
2018-03-06T00:33:17.302Z,15.07
2018-03-06T00:34:19.879Z,13.60
2018-03-06T00:35:22.415Z,14.98
2018-03-06T00:36:24.946Z,14.40
2018-03-06T00:37:28.299Z,13.85
2018-03-06T00:38:30.842Z,15.35
2018-03-06T00:39:33.431Z,15.95
2018-03-06T00:40:36.073Z,15.45
2018-03-06T00:41:38.645Z,16.12
2018-03-06T00:42:41.232Z,15.93
2018-03-06T00:43:43.780Z,15.40
2018-03-06T00:44:46.362Z,15.73
2018-03-06T00:45:48.902Z,15.43
2018-03-06T00:46:51.450Z,16.10
2018-03-06T00:47:53.997Z,15.95
2018-03-06T00:48:57.329Z,16.45
2018-03-06T00:49:59.921Z,15.65
2018-03-06T00:51:02.478Z,15.13
2018-03-06T00:52:05.018Z,15.93
2018-03-06T00:53:07.566Z,15.95
2018-03-06T00:54:10.122Z,16.10
2018-03-06T00:55:12.708Z,15.13
2018-03-06T00:56:15.253Z,15.63
2018-03-06T00:57:17.793Z,16.52
2018-03-06T00:58:20.325Z,16.40
2018-03-06T00:59:22.862Z,14.98
2018-03-06T01:00:25.436Z,17.12
2018-03-06T01:01:28.018Z,15.77
2018-03-06T01:02:30.573Z,17.52
2018-03-06T01:03:33.116Z,16.33
2018-03-06T01:04:36.429Z,17.08
2018-03-06T01:05:38.966Z,16.10
2018-03-06T01:06:42.319Z,15.75
2018-03-06T01:07:44.875Z,16.73
2018-03-06T01:08:47.399Z,16.05
2018-03-06T01:09:49.941Z,16.50
2018-03-06T01:10:53.255Z,15.77
2018-03-06T01:11:55.849Z,16.98
2018-03-06T01:12:58.393Z,14.93
2018-03-06T01:14:00.920Z,16.80
2018-03-06T01:15:03.448Z,16.80
2018-03-06T01:16:05.988Z,14.85
2018-03-06T01:17:08.561Z,16.55
2018-03-06T01:18:11.116Z,14.95
2018-03-06T01:19:13.667Z,16.62
2018-03-06T01:20:16.224Z,15.60
2018-03-06T01:21:19.566Z,15.93
2018-03-06T01:22:22.101Z,15.80
2018-03-06T01:23:24.653Z,16.35
2018-03-06T01:24:27.243Z,16.90
2018-03-06T01:25:29.788Z,17.05
2018-03-06T01:26:32.372Z,16.15
2018-03-06T01:27:34.906Z,14.32
2018-03-06T01:28:38.222Z,16.92
2018-03-06T01:29:40.769Z,16.25
2018-03-06T01:30:43.362Z,15.93
2018-03-06T01:31:45.914Z,15.30
2018-03-06T01:32:48.470Z,15.63
2018-03-06T01:33:51.027Z,16.00
2018-03-06T01:34:54.341Z,16.23
2018-03-06T01:35:56.934Z,15.02
2018-03-06T01:36:59.477Z,15.65
2018-03-06T01:38:02.017Z,15.57
2018-03-06T01:39:05.311Z,14.23
2018-03-06T01:40:07.864Z,15.50
2018-03-06T01:41:11.214Z,15.25
2018-03-06T01:42:13.785Z,14.82
2018-03-06T01:43:16.339Z,15.32
2018-03-06T01:44:18.895Z,17.08
2018-03-06T01:45:21.481Z,16.58
2018-03-06T01:46:24.026Z,16.12
2018-03-06T01:47:26.573Z,16.02
2018-03-06T01:48:29.165Z,16.00
2018-03-06T01:49:31.732Z,14.80
2018-03-06T01:50:34.241Z,16.60
2018-03-06T01:51:49.461Z,15.90
2018-03-06T01:52:52.005Z,15.45
2018-03-06T01:53:54.558Z,15.45
2018-03-06T01:54:57.104Z,16.33
2018-03-06T01:56:00.427Z,14.57
2018-03-06T01:57:03.008Z,14.82
2018-03-06T01:58:05.558Z,15.50
2018-03-06T01:59:08.134Z,14.35
2018-03-06T02:00:10.688Z,15.75
2018-03-06T02:01:13.253Z,13.95
2018-03-06T02:02:15.803Z,15.07
2018-03-06T02:03:19.162Z,15.45
2018-03-06T02:04:21.717Z,13.98
2018-03-06T02:05:24.270Z,15.27
2018-03-06T02:06:26.815Z,16.85
2018-03-06T02:07:29.370Z,14.68
2018-03-06T02:08:31.969Z,14.75
2018-03-06T02:09:34.509Z,15.00
2018-03-06T02:10:37.076Z,14.75
2018-03-06T02:11:39.633Z,15.40
2018-03-06T02:12:42.181Z,14.93
2018-03-06T02:13:45.547Z,15.43
2018-03-06T02:14:48.132Z,15.25
2018-03-06T02:15:51.452Z,14.65
2018-03-06T02:16:54.005Z,15.45
2018-03-06T02:17:56.554Z,15.27
2018-03-06T02:18:59.868Z,15.73
2018-03-06T02:20:02.457Z,14.75
2018-03-06T02:21:04.998Z,15.68
2018-03-06T02:22:07.557Z,15.80
2018-03-06T02:23:10.114Z,14.98
2018-03-06T02:24:13.418Z,16.23
2018-03-06T02:25:16.003Z,14.68
2018-03-06T02:26:18.550Z,14.35
2018-03-06T02:27:21.100Z,15.93
2018-03-06T02:28:24.406Z,14.60
2018-03-06T02:29:26.957Z,15.00
2018-03-06T02:30:29.546Z,14.82
2018-03-06T02:31:32.096Z,16.40
2018-03-06T02:32:34.645Z,15.45
2018-03-06T02:33:37.999Z,13.45
2018-03-06T02:34:40.585Z,15.20
2018-03-06T02:35:43.129Z,15.63
2018-03-06T02:36:45.681Z,15.25
2018-03-06T02:37:48.220Z,14.52
2018-03-06T02:38:50.786Z,14.95
2018-03-06T02:39:53.377Z,15.25
2018-03-06T02:40:56.682Z,15.02
2018-03-06T02:41:59.242Z,13.77
2018-03-06T02:43:01.828Z,15.15
2018-03-06T02:44:05.149Z,15.85
2018-03-06T02:45:07.691Z,15.07
2018-03-06T02:46:12.952Z,15.00
2018-03-06T02:47:15.548Z,14.50
2018-03-06T02:48:18.106Z,14.30
2018-03-06T02:49:20.648Z,15.88
2018-03-06T02:50:23.192Z,14.23
2018-03-06T02:51:25.732Z,15.25
2018-03-06T02:52:28.318Z,16.70
2018-03-06T02:53:31.639Z,15.73
2018-03-06T02:54:34.198Z,15.80
2018-03-06T02:55:36.748Z,16.58
2018-03-06T02:56:39.304Z,15.55
2018-03-06T02:57:42.660Z,16.50
2018-03-06T02:58:45.210Z,14.98
2018-03-06T02:59:47.777Z,15.50
2018-03-06T03:00:50.321Z,15.55
2018-03-06T03:01:52.869Z,14.45
2018-03-06T03:02:55.459Z,15.02
2018-03-06T03:03:58.009Z,15.65
2018-03-06T03:05:00.556Z,16.12
2018-03-06T03:06:03.906Z,14.93
2018-03-06T03:07:06.497Z,16.00
2018-03-06T03:08:09.818Z,16.33
2018-03-06T03:09:12.401Z,15.45
2018-03-06T03:10:14.937Z,15.10
2018-03-06T03:11:17.486Z,16.95
2018-03-06T03:12:20.837Z,16.27
2018-03-06T03:13:23.379Z,16.23
2018-03-06T03:14:25.942Z,16.65
2018-03-06T03:15:28.517Z,15.40
2018-03-06T03:16:31.108Z,15.80
2018-03-06T03:17:34.378Z,15.40
2018-03-06T03:18:36.983Z,15.60
2018-03-06T03:19:39.556Z,15.25
2018-03-06T03:20:42.870Z,15.75
2018-03-06T03:21:45.425Z,15.38
2018-03-06T03:22:47.985Z,15.60
2018-03-06T03:23:51.355Z,15.52
2018-03-06T03:24:53.911Z,17.98
2018-03-06T03:25:56.460Z,16.85
2018-03-06T03:26:59.004Z,16.10
2018-03-06T03:28:01.568Z,15.68
2018-03-06T03:29:04.162Z,14.93
2018-03-06T03:30:06.722Z,14.35
2018-03-06T03:31:09.270Z,16.45
2018-03-06T03:32:11.811Z,15.10
2018-03-06T03:33:14.354Z,17.20
2018-03-06T03:34:17.709Z,16.17
2018-03-06T03:35:20.248Z,16.58
2018-03-06T03:36:22.794Z,16.75
2018-03-06T03:37:25.354Z,17.48
2018-03-06T03:38:28.705Z,17.52
2018-03-06T03:39:31.672Z,17.33
2018-03-06T03:40:34.223Z,18.25
2018-03-06T03:41:36.770Z,17.95
2018-03-06T03:42:39.323Z,16.25
2018-03-06T03:43:42.665Z,17.17
2018-03-06T03:44:45.213Z,18.55
2018-03-06T03:45:47.775Z,16.35
2018-03-06T03:46:50.326Z,16.37
2018-03-06T03:47:52.916Z,16.40
2018-03-06T03:48:55.505Z,16.83
2018-03-06T03:49:58.073Z,16.92
2018-03-06T03:51:00.629Z,16.40
2018-03-06T03:52:03.217Z,16.90
2018-03-06T03:53:05.778Z,17.45
2018-03-06T03:54:08.353Z,17.73
2018-03-06T03:55:10.910Z,16.45
2018-03-06T03:56:13.494Z,17.58
2018-03-06T03:57:16.037Z,16.50
2018-03-06T03:58:18.603Z,17.85
2018-03-06T03:59:21.146Z,17.62
2018-03-06T04:00:24.714Z,16.87
2018-03-06T04:01:27.302Z,16.17
2018-03-06T04:02:29.852Z,16.08
2018-03-06T04:03:33.166Z,17.58
2018-03-06T04:04:35.745Z,16.70
2018-03-06T04:05:38.258Z,17.35
2018-03-06T04:06:40.842Z,18.95
2018-03-06T04:07:43.453Z,19.17
2018-03-06T04:08:46.006Z,17.98
2018-03-06T04:09:48.557Z,17.35
2018-03-06T04:10:51.104Z,17.35
2018-03-06T04:11:53.652Z,16.17
2018-03-06T04:12:56.249Z,17.30
2018-03-06T04:13:58.802Z,17.73
2018-03-06T04:15:01.356Z,17.05
2018-03-06T04:16:03.910Z,18.05
2018-03-06T04:17:07.226Z,18.48
2018-03-06T04:18:09.834Z,17.33
2018-03-06T04:19:12.373Z,16.90
2018-03-06T04:20:14.926Z,17.50
2018-03-06T04:21:17.476Z,18.42
2018-03-06T04:22:20.078Z,17.58
2018-03-06T04:23:22.638Z,17.45
2018-03-06T04:24:25.183Z,18.52
2018-03-06T04:25:27.734Z,17.52
2018-03-06T04:26:31.037Z,18.62
2018-03-06T04:27:34.865Z,18.27
2018-03-06T04:28:37.415Z,17.52
2018-03-06T04:29:40.009Z,19.52
2018-03-06T04:30:42.552Z,17.98
2018-03-06T04:31:45.102Z,18.60
2018-03-06T04:32:47.645Z,19.12
2018-03-06T04:33:50.984Z,17.98
2018-03-06T04:34:53.583Z,17.45
2018-03-06T04:35:56.902Z,19.17
2018-03-06T04:36:59.453Z,19.05
2018-03-06T04:38:02.013Z,18.30
2018-03-06T04:39:05.327Z,18.90
2018-03-06T04:40:07.896Z,17.25
2018-03-06T04:41:10.437Z,18.35
2018-03-06T04:42:12.988Z,17.65
2018-03-06T04:43:15.534Z,18.55
2018-03-06T04:44:18.065Z,18.35
2018-03-06T04:45:20.669Z,18.75
2018-03-06T04:46:23.217Z,18.27
2018-03-06T04:47:25.776Z,17.83
2018-03-06T04:48:28.329Z,19.00
2018-03-06T04:49:30.881Z,18.12
2018-03-06T04:50:33.464Z,18.40
2018-03-06T04:51:36.042Z,17.85
2018-03-06T04:52:38.584Z,18.73
2018-03-06T04:53:42.724Z,17.75
2018-03-06T04:54:45.280Z,17.75
2018-03-06T04:55:47.869Z,16.98
2018-03-06T04:56:50.422Z,17.58
2018-03-06T04:57:52.972Z,16.75
2018-03-06T04:58:55.517Z,18.00
2018-03-06T04:59:58.064Z,18.83
2018-03-06T05:01:01.402Z,17.50
2018-03-06T05:02:09.904Z,19.10
2018-03-06T05:03:12.481Z,17.85
2018-03-06T05:04:15.032Z,16.40
2018-03-06T05:05:17.585Z,18.25
2018-03-06T05:06:20.132Z,17.23
2018-03-06T05:07:22.716Z,18.27
2018-03-06T05:08:25.265Z,17.70
2018-03-06T05:09:27.816Z,18.52
2018-03-06T05:10:31.138Z,17.02
2018-03-06T05:11:33.725Z,17.08
2018-03-06T05:12:36.273Z,16.87
2018-03-06T05:13:38.814Z,17.12
2018-03-06T05:14:42.264Z,18.30
2018-03-06T05:15:44.805Z,18.33
2018-03-06T05:16:47.371Z,18.65
2018-03-06T05:17:49.968Z,17.37
2018-03-06T05:18:52.614Z,17.65
2018-03-06T05:19:55.052Z,17.05
2018-03-06T05:20:57.607Z,18.30
2018-03-06T05:22:00.153Z,17.42
2018-03-06T05:23:02.734Z,17.25
2018-03-06T05:24:05.284Z,18.33
2018-03-06T05:25:08.605Z,17.42
2018-03-06T05:26:11.185Z,17.50
2018-03-06T05:27:13.742Z,17.98
2018-03-06T05:28:16.301Z,17.87
2018-03-06T05:29:18.897Z,18.45
2018-03-06T05:30:21.444Z,17.92
2018-03-06T05:31:23.989Z,18.02
2018-03-06T05:32:26.586Z,18.40
2018-03-06T05:33:29.129Z,19.02
2018-03-06T05:34:31.681Z,17.92
2018-03-06T05:35:35.038Z,17.85
2018-03-06T05:36:37.588Z,18.55
2018-03-06T05:37:40.138Z,18.67
2018-03-06T05:38:42.693Z,18.67
2018-03-06T05:39:45.273Z,17.50
2018-03-06T05:40:47.817Z,17.50
2018-03-06T05:41:50.377Z,18.30
2018-03-06T05:42:52.956Z,17.73
2018-03-06T05:43:55.505Z,19.25
2018-03-06T05:44:58.062Z,19.83
2018-03-06T05:46:01.391Z,21.73
2018-03-06T05:47:03.934Z,19.92
2018-03-06T05:48:06.533Z,22.20
2018-03-06T05:49:09.082Z,22.58
2018-03-06T05:50:12.497Z,21.67
2018-03-06T05:51:15.015Z,19.75
2018-03-06T05:52:17.566Z,18.75
2018-03-06T05:53:20.923Z,17.80
2018-03-06T05:54:23.473Z,18.98
2018-03-06T05:55:26.029Z,17.12
2018-03-06T05:56:28.577Z,17.33
2018-03-06T05:57:31.145Z,18.73
2018-03-06T05:58:33.685Z,18.17
2018-03-06T05:59:37.009Z,17.95
2018-03-06T06:00:39.562Z,18.10
2018-03-06T06:01:42.141Z,17.75
2018-03-06T06:02:44.689Z,18.30
2018-03-06T06:03:47.245Z,18.00
2018-03-06T06:04:49.834Z,18.25
2018-03-06T06:05:52.380Z,19.20
2018-03-06T06:06:54.929Z,18.65
2018-03-06T06:07:58.277Z,18.25
2018-03-06T06:09:00.821Z,20.23
2018-03-06T06:10:03.364Z,18.70
2018-03-06T06:11:05.953Z,19.08
2018-03-06T06:12:08.493Z,19.98
2018-03-06T06:13:11.958Z,19.55
2018-03-06T06:14:14.565Z,19.62
2018-03-06T06:15:17.901Z,19.60
2018-03-06T06:16:20.433Z,19.10
2018-03-06T06:17:22.961Z,20.30
2018-03-06T06:18:26.261Z,19.60
2018-03-06T06:19:29.561Z,18.75
2018-03-06T06:20:32.129Z,19.52
2018-03-06T06:21:34.689Z,17.52
2018-03-06T06:22:37.216Z,19.55
2018-03-06T06:23:39.760Z,20.10
2018-03-06T06:24:42.318Z,19.50
2018-03-06T06:25:44.892Z,19.27
2018-03-06T06:26:47.434Z,20.42
2018-03-06T06:27:49.977Z,19.75
2018-03-06T06:28:53.268Z,22.83
2018-03-06T06:29:56.570Z,22.77
2018-03-06T06:30:59.133Z,23.67
2018-03-06T06:32:01.682Z,24.45
2018-03-06T06:33:05.716Z,23.65
2018-03-06T06:34:08.247Z,26.00
2018-03-06T06:35:10.790Z,26.00
2018-03-06T06:36:13.328Z,24.58
2018-03-06T06:37:16.690Z,24.63
2018-03-06T06:38:19.274Z,23.95
2018-03-06T06:39:21.803Z,25.20
2018-03-06T06:40:25.126Z,23.25
2018-03-06T06:41:27.721Z,23.77
2018-03-06T06:42:30.253Z,23.67
2018-03-06T06:43:32.797Z,23.15
2018-03-06T06:44:35.337Z,21.42
2018-03-06T06:45:38.638Z,24.23
2018-03-06T06:46:41.241Z,23.55
2018-03-06T06:47:43.777Z,23.52
2018-03-06T06:48:46.354Z,22.65
2018-03-06T06:49:48.879Z,22.80
2018-03-06T06:50:51.410Z,25.92
2018-03-06T06:51:53.973Z,24.33
2018-03-06T06:52:56.503Z,24.40
2018-03-06T06:53:59.037Z,24.52
2018-03-06T06:55:01.575Z,23.55
2018-03-06T06:56:04.109Z,24.25
2018-03-06T06:57:06.682Z,23.48
2018-03-06T06:58:09.214Z,23.00
2018-03-06T06:59:11.767Z,24.73
2018-03-06T07:00:14.293Z,23.95
2018-03-06T07:01:16.825Z,25.05
2018-03-06T07:02:20.144Z,23.50
2018-03-06T07:03:22.669Z,23.30
2018-03-06T07:04:25.273Z,24.25
2018-03-06T07:05:27.789Z,23.85
2018-03-06T07:06:30.330Z,21.52
2018-03-06T07:07:32.857Z,21.73
2018-03-06T07:08:35.411Z,24.25
2018-03-06T07:09:37.970Z,25.27
2018-03-06T07:10:41.270Z,23.20
2018-03-06T07:11:43.806Z,22.83
2018-03-06T07:12:46.334Z,24.45
2018-03-06T07:13:48.902Z,24.98
2018-03-06T07:14:51.465Z,24.70
2018-03-06T07:15:53.987Z,22.77
2018-03-06T07:16:57.315Z,26.35
2018-03-06T07:17:59.836Z,24.48
2018-03-06T07:19:02.366Z,24.42
2018-03-06T07:20:04.934Z,26.30
2018-03-06T07:21:07.466Z,25.17
2018-03-06T07:22:09.992Z,24.02
2018-03-06T07:23:12.521Z,24.12
2018-03-06T07:24:15.802Z,24.55
2018-03-06T07:25:18.373Z,25.40
2018-03-06T07:26:20.905Z,24.15
2018-03-06T07:27:23.428Z,23.90
2018-03-06T07:28:25.949Z,23.67
2018-03-06T07:29:28.474Z,23.87
2018-03-06T07:30:31.809Z,24.85
2018-03-06T07:31:34.337Z,25.52
2018-03-06T07:32:37.641Z,24.77
2018-03-06T07:33:40.167Z,23.95
2018-03-06T07:34:42.703Z,25.15
2018-03-06T07:35:45.273Z,25.67
2018-03-06T07:36:47.802Z,24.63
2018-03-06T07:37:50.333Z,24.55
2018-03-06T07:38:52.897Z,24.10
2018-03-06T07:39:55.417Z,24.50
2018-03-06T07:40:57.937Z,23.60
2018-03-06T07:42:00.501Z,23.77
2018-03-06T07:43:03.026Z,22.90
2018-03-06T07:44:05.550Z,22.95
2018-03-06T07:45:08.864Z,24.40
2018-03-06T07:46:11.402Z,26.35
2018-03-06T07:47:14.721Z,24.67
2018-03-06T07:48:17.246Z,23.92
2018-03-06T07:49:20.564Z,24.75
2018-03-06T07:50:23.097Z,22.80
2018-03-06T07:51:26.380Z,23.15
2018-03-06T07:52:29.674Z,22.60
2018-03-06T07:53:32.964Z,21.83
2018-03-06T07:54:35.521Z,22.75
2018-03-06T07:55:38.803Z,21.27
2018-03-06T07:56:42.105Z,21.12
2018-03-06T07:57:44.629Z,22.33
2018-03-06T07:58:47.165Z,21.98
2018-03-06T07:59:49.721Z,23.17
2018-03-06T08:00:52.246Z,21.37
2018-03-06T08:01:55.549Z,22.33
2018-03-06T08:02:58.102Z,21.58
2018-03-06T08:04:01.396Z,24.08
2018-03-06T08:05:03.951Z,23.50
2018-03-06T08:06:07.244Z,23.15
2018-03-06T08:07:09.772Z,25.73
2018-03-06T08:08:12.305Z,24.77
2018-03-06T08:09:14.825Z,22.83
2018-03-06T08:10:18.149Z,23.65
2018-03-06T08:11:20.666Z,20.90
2018-03-06T08:12:23.187Z,21.33
2018-03-06T08:13:25.714Z,23.42
2018-03-06T08:14:29.044Z,22.00
2018-03-06T08:15:31.572Z,23.05
2018-03-06T08:16:34.852Z,23.62
2018-03-06T08:17:38.128Z,21.92
2018-03-06T08:18:41.419Z,23.58
2018-03-06T08:19:44.741Z,22.65
2018-03-06T08:20:47.266Z,24.80
2018-03-06T08:21:50.580Z,24.08
2018-03-06T08:22:53.101Z,25.67
2018-03-06T08:23:56.427Z,24.60
2018-03-06T08:24:58.965Z,25.05
2018-03-06T08:26:02.249Z,24.63
2018-03-06T08:27:05.544Z,26.27
2018-03-06T08:28:08.081Z,25.83
2018-03-06T08:29:11.558Z,25.67
2018-03-06T08:30:14.015Z,23.73
2018-03-06T08:31:16.504Z,25.67
2018-03-06T08:32:19.025Z,27.67
2018-03-06T08:33:21.581Z,29.63
2018-03-06T08:35:32.826Z,25.40
2018-03-06T08:36:36.110Z,27.92
2018-03-06T08:37:39.401Z,25.48
2018-03-06T08:38:41.960Z,26.92
2018-03-06T08:39:44.478Z,28.90
2018-03-06T08:40:46.997Z,27.45
2018-03-06T08:41:49.906Z,27.80
2018-03-06T08:42:52.438Z,27.70
2018-03-06T08:43:55.765Z,27.05
2018-03-06T08:44:58.321Z,26.73
2018-03-06T08:46:00.840Z,29.55
2018-03-06T08:47:04.173Z,29.05
2018-03-06T08:48:06.698Z,28.48
2018-03-06T08:49:09.226Z,28.50
2018-03-06T08:50:11.749Z,28.87
2018-03-06T08:51:14.277Z,28.33
2018-03-06T08:52:16.833Z,30.10
2018-03-06T08:53:19.361Z,30.30
2018-03-06T08:54:21.913Z,30.73
2018-03-06T08:55:24.438Z,29.10
2018-03-06T08:56:26.959Z,28.23
2018-03-06T08:57:29.519Z,28.12
2018-03-06T08:58:32.078Z,28.60
2018-03-06T08:59:34.602Z,27.83
2018-03-06T09:00:37.226Z,28.67
2018-03-06T09:01:39.789Z,26.42
2018-03-06T09:02:42.314Z,27.75
2018-03-06T09:03:44.840Z,29.27
2018-03-06T09:04:47.358Z,28.02
2018-03-06T09:05:50.650Z,29.17
2018-03-06T09:06:53.216Z,28.45
2018-03-06T09:07:55.746Z,28.65
2018-03-06T09:08:58.281Z,28.77
2018-03-06T09:10:00.805Z,27.90
2018-03-06T09:11:04.131Z,27.02
2018-03-06T09:12:06.646Z,29.73
2018-03-06T09:13:09.165Z,28.50
2018-03-06T09:14:11.690Z,27.05
2018-03-06T09:15:15.019Z,26.55
2018-03-06T09:16:17.543Z,29.55
2018-03-06T09:17:21.807Z,28.40
2018-03-06T09:18:24.297Z,28.42
2018-03-06T09:19:26.848Z,29.60
2018-03-06T09:20:29.380Z,28.70
2018-03-06T09:21:31.902Z,28.05
2018-03-06T09:22:35.185Z,28.83
2018-03-06T09:23:38.474Z,30.42
2018-03-06T09:24:41.802Z,30.25
2018-03-06T09:25:44.325Z,29.45
2018-03-06T09:26:47.621Z,32.17
2018-03-06T09:27:50.142Z,31.27
2018-03-06T09:28:52.662Z,31.25
2018-03-06T09:29:55.213Z,32.38
2018-03-06T09:30:57.741Z,29.67
2018-03-06T09:32:00.266Z,30.25
2018-03-06T09:33:02.841Z,29.92
2018-03-06T09:34:05.361Z,30.67
2018-03-06T09:35:07.881Z,29.90
2018-03-06T09:36:11.167Z,30.33
2018-03-06T09:37:13.706Z,33.03
2018-03-06T09:38:16.273Z,32.72
2018-03-06T09:39:18.804Z,32.05
2018-03-06T09:40:21.321Z,32.50
2018-03-06T09:41:23.843Z,33.00
2018-03-06T09:42:27.134Z,31.98
2018-03-06T09:43:30.460Z,33.03
2018-03-06T09:44:33.010Z,32.40
2018-03-06T09:45:35.535Z,33.53
2018-03-06T09:46:38.065Z,32.58
2018-03-06T09:47:41.829Z,30.75
2018-03-06T09:48:44.381Z,33.17
2018-03-06T09:49:47.689Z,37.90
2018-03-06T09:50:50.218Z,34.47
2018-03-06T09:51:52.748Z,34.42
2018-03-06T09:52:55.281Z,33.33
2018-03-06T09:53:57.840Z,34.03
2018-03-06T09:55:00.360Z,33.88
2018-03-06T09:56:02.906Z,32.10
2018-03-06T09:57:05.433Z,32.80
2018-03-06T09:58:08.729Z,34.03
2018-03-06T09:59:11.286Z,33.90
2018-03-06T10:00:14.577Z,33.42
2018-03-06T10:01:17.094Z,32.97
2018-03-06T10:02:19.620Z,33.58
2018-03-06T10:03:22.202Z,34.28
2018-03-06T10:04:24.723Z,33.80
2018-03-06T10:05:28.047Z,34.20
2018-03-06T10:06:30.618Z,34.90
2018-03-06T10:07:33.199Z,32.50
2018-03-06T10:08:35.794Z,36.60
2018-03-06T10:09:38.426Z,33.67
2018-03-06T10:10:41.005Z,36.35
2018-03-06T10:11:43.590Z,36.97
2018-03-06T10:12:46.146Z,36.95
2018-03-06T10:13:48.718Z,36.70
2018-03-06T10:14:51.321Z,35.75
2018-03-06T10:15:54.657Z,36.35
2018-03-06T10:16:57.248Z,38.53
2018-03-06T10:17:59.867Z,36.42
2018-03-06T10:19:02.436Z,37.25
2018-03-06T10:20:05.034Z,37.63
2018-03-06T10:21:07.607Z,39.00
2018-03-06T10:22:10.167Z,37.00
2018-03-06T10:23:12.748Z,38.20
2018-03-06T10:24:15.315Z,39.30
2018-03-06T10:25:17.914Z,37.25
2018-03-06T10:26:20.487Z,37.92
2018-03-06T10:27:23.055Z,38.78
2018-03-06T10:28:25.646Z,40.20
2018-03-06T10:29:28.215Z,39.58
2018-03-06T10:30:30.770Z,39.80
2018-03-06T10:31:33.441Z,38.90
2018-03-06T10:32:36.809Z,38.22
2018-03-06T10:33:39.391Z,39.15
2018-03-06T10:34:41.921Z,39.95
2018-03-06T10:35:45.247Z,41.78
2018-03-06T10:36:47.856Z,39.50
2018-03-06T10:37:50.430Z,40.22
2018-03-06T10:38:52.989Z,40.03
2018-03-06T10:39:55.550Z,40.70
2018-03-06T10:40:58.110Z,40.00
2018-03-06T10:42:00.737Z,39.17
2018-03-06T10:43:03.302Z,39.75
2018-03-06T10:44:05.877Z,39.22
2018-03-06T10:45:08.438Z,41.65
2018-03-06T10:46:10.998Z,39.38
2018-03-06T10:47:13.620Z,41.22
2018-03-06T10:48:16.221Z,39.65
2018-03-06T10:49:19.542Z,38.10
2018-03-06T10:50:22.114Z,37.33
2018-03-06T10:51:24.671Z,40.47
2018-03-06T10:52:27.275Z,39.95
2018-03-06T10:53:29.829Z,40.42
2018-03-06T10:54:32.397Z,39.08
2018-03-06T10:55:34.962Z,38.45
2018-03-06T10:56:37.524Z,40.28
2018-03-06T10:57:40.130Z,39.67
2018-03-06T10:58:43.556Z,37.63
2018-03-06T10:59:46.144Z,39.92
2018-03-06T11:00:48.711Z,38.35
2018-03-06T11:01:57.251Z,40.63
2018-03-06T11:03:00.637Z,39.72
2018-03-06T11:04:03.195Z,40.67
2018-03-06T11:05:05.725Z,39.20
2018-03-06T11:06:08.250Z,38.85
2018-03-06T11:07:11.535Z,38.63
2018-03-06T11:08:14.903Z,38.63
2018-03-06T11:09:17.404Z,38.28
2018-03-06T11:10:19.933Z,39.53
2018-03-06T11:11:22.521Z,38.42
2018-03-06T11:12:25.070Z,38.50
2018-03-06T11:13:34.252Z,39.72
2018-03-06T11:14:36.782Z,38.90
2018-03-06T11:15:39.321Z,38.78
2018-03-06T11:16:41.917Z,39.20
2018-03-06T11:17:44.454Z,37.65
2018-03-06T11:18:46.974Z,38.05
2018-03-06T11:19:49.517Z,38.58
2018-03-06T11:20:52.046Z,38.40
2018-03-06T11:21:54.607Z,39.20
2018-03-06T11:22:57.136Z,40.10
2018-03-06T11:23:59.659Z,37.15
2018-03-06T11:25:02.225Z,37.35
2018-03-06T11:26:04.764Z,37.70
2018-03-06T11:27:07.281Z,37.83
2018-03-06T11:28:09.814Z,36.13
2018-03-06T11:29:12.356Z,37.00
2018-03-06T11:30:14.914Z,35.78
2018-03-06T11:31:17.437Z,37.05
2018-03-06T11:32:20.732Z,36.80
2018-03-06T11:33:23.291Z,34.20
2018-03-06T11:34:26.583Z,36.30
2018-03-06T11:35:29.178Z,35.90
2018-03-06T11:36:31.682Z,34.60
2018-03-06T11:37:35.699Z,34.88
2018-03-06T11:38:39.017Z,34.55
2018-03-06T11:39:41.542Z,34.05
2018-03-06T11:40:44.880Z,36.63
2018-03-06T11:41:47.413Z,36.55
2018-03-06T11:42:49.942Z,35.70
2018-03-06T11:43:52.505Z,35.00
2018-03-06T11:44:55.039Z,35.33
2018-03-06T11:45:57.569Z,35.92
2018-03-06T11:47:00.861Z,36.05
2018-03-06T11:48:03.387Z,34.00
2018-03-06T11:49:05.938Z,35.88
2018-03-06T11:50:09.219Z,35.03
2018-03-06T11:51:11.738Z,34.60
2018-03-06T11:52:14.299Z,34.97
2018-03-06T11:53:17.591Z,33.72
2018-03-06T11:54:20.173Z,31.67
2018-03-06T11:55:22.721Z,33.17
2018-03-06T11:56:25.234Z,33.78
2018-03-06T11:57:27.762Z,33.17
2018-03-06T11:58:30.285Z,34.05
2018-03-06T11:59:32.835Z,34.85
2018-03-06T12:00:35.358Z,31.48
2018-03-06T12:01:37.878Z,33.75
2018-03-06T12:02:40.398Z,34.58
2018-03-06T12:03:42.949Z,33.78
2018-03-06T12:04:46.273Z,30.35
2018-03-06T12:05:48.801Z,27.40
2018-03-06T12:06:52.085Z,29.77
2018-03-06T12:07:55.374Z,31.60
2018-03-06T12:08:57.936Z,31.15
2018-03-06T12:10:00.486Z,31.17
2018-03-06T12:11:03.819Z,32.80
2018-03-06T12:12:07.113Z,29.37
2018-03-06T12:13:09.633Z,31.92
2018-03-06T12:14:12.921Z,30.73
2018-03-06T12:15:15.480Z,29.35
2018-03-06T12:16:18.815Z,30.12
2018-03-06T12:17:21.309Z,29.55
2018-03-06T12:18:23.837Z,30.50
2018-03-06T12:19:26.399Z,28.17
2018-03-06T12:20:28.955Z,29.67
2018-03-06T12:21:31.508Z,30.75
2018-03-06T12:22:34.037Z,29.33
2018-03-06T12:23:36.556Z,29.60
2018-03-06T12:24:39.075Z,28.62
2018-03-06T12:25:41.630Z,29.30
2018-03-06T12:26:44.158Z,30.55
2018-03-06T12:27:46.702Z,28.77
2018-03-06T12:28:49.231Z,29.90
2018-03-06T12:29:51.749Z,28.52
2018-03-06T12:30:54.305Z,27.02
2018-03-06T12:31:56.826Z,29.10
2018-03-06T12:32:59.348Z,28.15
2018-03-06T12:34:01.886Z,29.42
2018-03-06T12:35:05.209Z,29.15
2018-03-06T12:36:07.758Z,28.90
2018-03-06T12:37:10.288Z,28.20
2018-03-06T12:38:12.801Z,29.27
2018-03-06T12:39:15.326Z,29.98
2018-03-06T12:40:18.609Z,26.35
2018-03-06T12:41:21.925Z,26.25
2018-03-06T12:42:24.453Z,25.27
2018-03-06T12:43:26.982Z,26.23
2018-03-06T12:44:29.501Z,25.90
2018-03-06T12:45:32.825Z,26.15
2018-03-06T12:46:35.374Z,26.02
2018-03-06T12:47:37.951Z,26.30
2018-03-06T12:48:40.478Z,27.50
2018-03-06T12:49:43.766Z,26.00
2018-03-06T12:50:47.041Z,23.87
2018-03-06T12:51:50.462Z,23.85
2018-03-06T12:52:53.029Z,26.50
2018-03-06T12:53:55.557Z,26.05
2018-03-06T12:54:58.896Z,25.65
2018-03-06T12:56:01.401Z,26.85
2018-03-06T12:57:03.927Z,26.20
2018-03-06T12:58:06.476Z,26.25
2018-03-06T12:59:08.994Z,26.85
2018-03-06T13:00:11.529Z,27.15
2018-03-06T13:01:14.061Z,25.12
2018-03-06T13:02:16.618Z,26.77
2018-03-06T13:03:19.898Z,29.30
2018-03-06T13:04:23.185Z,29.05
2018-03-06T13:05:26.471Z,29.23
2018-03-06T13:06:29.764Z,30.80
2018-03-06T13:07:32.317Z,28.87
2018-03-06T13:08:35.621Z,28.20
2018-03-06T13:09:38.143Z,28.92
2018-03-06T13:10:40.667Z,29.35
2018-03-06T13:11:43.199Z,29.77
2018-03-06T13:12:46.530Z,32.30
2018-03-06T13:13:49.071Z,32.13
2018-03-06T13:14:51.589Z,35.15
2018-03-06T13:15:54.115Z,35.53
2018-03-06T13:16:56.635Z,36.75
2018-03-06T13:17:59.207Z,36.80
2018-03-06T13:19:01.727Z,38.38
2018-03-06T13:20:04.280Z,36.45
2018-03-06T13:21:06.805Z,37.95
2018-03-06T13:22:10.141Z,37.95
2018-03-06T13:23:12.661Z,37.60
2018-03-06T13:24:15.962Z,37.10
2018-03-06T13:25:18.491Z,35.30
2018-03-06T13:26:21.009Z,37.00
2018-03-06T13:27:23.585Z,36.15
2018-03-06T13:28:26.153Z,35.60
2018-03-06T13:29:28.685Z,35.60